Time;durP1;ratioP1;P1;durP2;ratioP2;P2;SDS_P1;SDS_P2;PMS_P1;PMS_P2;Temp;Humidity;BMP_temperature;BMP_pressure;BME280_temperature;BME280_humidity;BME280_pressure;Samples;Min_cycle;Max_cycle;Signal;HPM_P1;HPM_P2
2023/01/08 00:01:07;;;;;;;5.18;3.42;;;;;;;;;;5018976;28;20045;-86
2023/01/08 00:03:34;;;;;;;7.22;3.78;;;;;;;;;;5023422;28;20113;-86
2023/01/08 00:06:02;;;;;;;6.93;4.13;;;;;;;;;;5017909;28;20056;-84
2023/01/08 00:08:28;;;;;;;6.68;4.10;;;;;;;;;;5033143;28;20525;-85
2023/01/08 00:10:55;;;;;;;4.90;3.45;;;;;;;;;;5022876;28;20053;-85
2023/01/08 00:13:21;;;;;;;5.68;3.83;;;;;;;;;;5036893;28;20125;-83
2023/01/08 00:15:48;;;;;;;5.53;3.35;;;;;;;;;;5041547;28;20080;-85
2023/01/08 00:18:14;;;;;;;5.75;3.30;;;;;;;;;;5043803;28;20119;-86
2023/01/08 00:20:44;;;;;;;5.55;3.15;;;;;;;;;;5032285;28;20053;-84
2023/01/08 00:23:15;;;;;;;5.53;3.35;;;;;;;;;;5020529;28;20046;-85
2023/01/08 00:25:41;;;;;;;5.05;3.08;;;;;;;;;;5009666;28;20057;-85
2023/01/08 00:28:08;;;;;;;5.75;3.42;;;;;;;;;;5026830;28;20046;-83
2023/01/08 00:30:35;;;;;;;5.50;3.05;;;;;;;;;;5042981;28;20037;-83
2023/01/08 00:33:01;;;;;;;5.97;3.38;;;;;;;;;;5028579;28;20053;-84
2023/01/08 00:35:28;;;;;;;7.72;4.07;;;;;;;;;;5031826;28;20059;-85
2023/01/08 00:37:55;;;;;;;8.50;4.53;;;;;;;;;;5034038;28;20843;-84
2023/01/08 00:40:21;;;;;;;8.68;4.72;;;;;;;;;;5008034;28;20237;-85
2023/01/08 00:42:47;;;;;;;11.50;5.63;;;;;;;;;;5034431;28;20056;-84
2023/01/08 00:45:14;;;;;;;11.60;5.38;;;;;;;;;;5009449;28;20440;-85
2023/01/08 00:47:40;;;;;;;9.63;5.53;;;;;;;;;;5014821;28;20161;-85
2023/01/08 00:50:07;;;;;;;7.28;4.72;;;;;;;;;;5017766;28;20049;-85
2023/01/08 00:52:33;;;;;;;8.43;5.28;;;;;;;;;;4997893;28;20105;-85
2023/01/08 00:55:00;;;;;;;10.90;5.38;;;;;;;;;;5005879;28;20453;-85
2023/01/08 00:57:31;;;;;;;9.40;5.70;;;;;;;;;;5031268;28;20061;-85
2023/01/08 00:59:57;;;;;;;8.55;5.10;;;;;;;;;;5000226;28;20042;-84
2023/01/08 01:02:24;;;;;;;9.75;5.82;;;;;;;;;;5015893;28;20110;-86
2023/01/08 01:04:50;;;;;;;8.68;5.22;;;;;;;;;;5026222;28;20053;-86
2023/01/08 01:07:17;;;;;;;8.82;5.13;;;;;;;;;;5031994;28;20053;-86
2023/01/08 01:09:44;;;;;;;10.85;5.15;;;;;;;;;;5019063;28;20050;-85
2023/01/08 01:12:10;;;;;;;8.13;4.95;;;;;;;;;;5002288;28;20066;-86
2023/01/08 01:14:37;;;;;;;9.70;5.40;;;;;;;;;;5018646;28;20057;-85
2023/01/08 01:17:03;;;;;;;8.70;5.28;;;;;;;;;;5033860;28;20050;-88
2023/01/08 01:19:30;;;;;;;11.45;5.90;;;;;;;;;;5014394;28;20054;-86
2023/01/08 01:21:56;;;;;;;10.73;5.82;;;;;;;;;;5011763;28;20092;-87
2023/01/08 01:24:23;;;;;;;9.85;5.32;;;;;;;;;;5009304;28;20061;-85
2023/01/08 01:26:50;;;;;;;8.25;4.85;;;;;;;;;;5011633;28;20054;-86
2023/01/08 01:29:17;;;;;;;9.85;5.30;;;;;;;;;;5004133;28;20064;-85
2023/01/08 01:31:43;;;;;;;8.57;5.00;;;;;;;;;;5013094;28;20049;-85
2023/01/08 01:34:12;;;;;;;8.68;5.13;;;;;;;;;;5026339;28;20054;-85
2023/01/08 01:36:38;;;;;;;9.27;5.57;;;;;;;;;;5007537;28;20049;-86
2023/01/08 01:39:05;;;;;;;9.13;5.30;;;;;;;;;;5011585;28;20054;-86
2023/01/08 01:41:37;;;;;;;9.05;5.22;;;;;;;;;;5001352;28;20517;-85
2023/01/08 01:44:22;;;;;;;8.93;5.03;;;;;;;;;;4994617;28;20073;-85
2023/01/08 01:46:49;;;;;;;9.85;5.07;;;;;;;;;;5027580;28;20045;-86
2023/01/08 01:49:20;;;;;;;8.75;4.82;;;;;;;;;;5037661;28;20112;-83
2023/01/08 01:51:49;;;;;;;10.07;4.57;;;;;;;;;;5036593;28;20439;-85
2023/01/08 01:54:16;;;;;;;8.35;4.75;;;;;;;;;;5022428;28;20049;-84
2023/01/08 01:56:44;;;;;;;7.97;4.60;;;;;;;;;;5007661;28;20058;-85
2023/01/08 01:59:11;;;;;;;8.23;4.97;;;;;;;;;;5025224;28;20089;-84
2023/01/08 02:01:39;;;;;;;7.85;4.65;;;;;;;;;;5022833;28;20057;-86
2023/01/08 02:04:07;;;;;;;7.25;4.45;;;;;;;;;;5017787;28;20088;-86
2023/01/08 02:06:35;;;;;;;7.28;4.40;;;;;;;;;;5005432;28;20084;-85
2023/01/08 02:09:02;;;;;;;7.55;4.38;;;;;;;;;;4997244;28;20769;-87
2023/01/08 02:11:33;;;;;;;10.90;4.47;;;;;;;;;;4996028;28;20050;-86
2023/01/08 02:14:04;;;;;;;8.05;4.68;;;;;;;;;;5017635;28;20548;-85
2023/01/08 02:16:30;;;;;;;8.45;4.72;;;;;;;;;;5023147;28;20148;-85
2023/01/08 02:19:01;;;;;;;7.43;4.40;;;;;;;;;;5012802;28;20155;-86
2023/01/08 02:21:35;;;;;;;6.40;4.00;;;;;;;;;;5032060;28;20057;-87
2023/01/08 02:24:24;;;;;;;8.27;4.07;;;;;;;;;;5014547;28;20057;-86
2023/01/08 02:26:52;;;;;;;9.77;4.50;;;;;;;;;;5029835;28;20054;-85
2023/01/08 02:29:19;;;;;;;9.35;4.20;;;;;;;;;;5013707;28;20136;-85
2023/01/08 02:31:46;;;;;;;7.72;3.78;;;;;;;;;;5019700;28;20410;-85
2023/01/08 02:34:13;;;;;;;7.95;4.28;;;;;;;;;;5013305;28;20437;-85
2023/01/08 02:36:39;;;;;;;6.63;4.00;;;;;;;;;;4999016;28;20054;-86
2023/01/08 02:39:24;;;;;;;7.20;4.03;;;;;;;;;;5016441;28;20065;-84
2023/01/08 02:42:11;;;;;;;5.78;3.88;;;;;;;;;;5034376;28;20063;-84
2023/01/08 02:44:46;;;;;;;6.68;4.15;;;;;;;;;;5019309;28;20146;-84
2023/01/08 02:47:13;;;;;;;;;;;;;;;;;;5022379;28;20147;-84
2023/01/08 02:49:41;;;;;;;8.27;4.20;;;;;;;;;;5010736;28;19925;-85
2023/01/08 02:52:10;;;;;;;6.45;3.90;;;;;;;;;;5024148;28;20084;-86
2023/01/08 02:54:38;;;;;;;5.95;3.70;;;;;;;;;;5044464;28;20594;-84
2023/01/08 02:57:07;;;;;;;6.28;3.67;;;;;;;;;;5036930;28;20057;-84
2023/01/08 02:59:34;;;;;;;6.15;3.80;;;;;;;;;;5015222;28;20558;-86
2023/01/08 03:02:01;;;;;;;7.50;4.03;;;;;;;;;;5021052;28;20174;-85
2023/01/08 03:04:29;;;;;;;6.63;3.47;;;;;;;;;;5021203;28;20057;-86
2023/01/08 03:06:56;;;;;;;7.43;3.67;;;;;;;;;;5031423;28;20042;-86
2023/01/08 03:09:23;;;;;;;7.95;4.28;;;;;;;;;;5004728;28;20042;-85
2023/01/08 03:11:53;;;;;;;8.27;3.95;;;;;;;;;;5041937;28;20037;-86
2023/01/08 03:14:29;;;;;;;6.60;3.92;;;;;;;;;;5019266;28;20045;-86
2023/01/08 03:17:34;;;;;;;8.25;4.15;;;;;;;;;;5000682;28;20054;-85
2023/01/08 03:20:04;;;;;;;6.22;3.92;;;;;;;;;;4958327;28;20047;-86
2023/01/08 03:22:31;;;;;;;7.13;4.10;;;;;;;;;;4959386;29;20055;-87
2023/01/08 03:24:58;;;;;;;5.28;3.53;;;;;;;;;;4980017;28;20056;-84
2023/01/08 03:27:26;;;;;;;5.10;3.20;;;;;;;;;;5021762;28;20431;-83
2023/01/08 03:29:55;;;;;;;7.47;4.03;;;;;;;;;;5004403;28;20411;-84
2023/01/08 03:32:22;;;;;;;5.38;3.38;;;;;;;;;;5014679;28;20061;-87
2023/01/08 03:34:50;;;;;;;6.43;3.75;;;;;;;;;;5028710;28;20052;-84
2023/01/08 03:37:18;;;;;;;6.18;3.35;;;;;;;;;;5006729;28;20084;-85
2023/01/08 03:40:03;;;;;;;6.47;3.65;;;;;;;;;;5027845;28;20041;-85
2023/01/08 03:42:30;;;;;;;4.72;3.20;;;;;;;;;;5026020;28;20045;-85
2023/01/08 03:44:58;;;;;;;7.35;3.45;;;;;;;;;;5023879;28;20125;-85
2023/01/08 03:47:25;;;;;;;6.57;3.88;;;;;;;;;;5015897;28;20097;-85
2023/01/08 03:49:54;;;;;;;8.68;3.80;;;;;;;;;;5033820;28;20154;-86
2023/01/08 03:52:21;;;;;;;5.85;3.47;;;;;;;;;;5026263;28;20060;-86
2023/01/08 03:54:48;;;;;;;8.45;3.30;;;;;;;;;;5013272;28;20053;-85
2023/01/08 03:57:14;;;;;;;8.18;3.45;;;;;;;;;;5009977;28;20057;-85
2023/01/08 03:59:41;;;;;;;4.13;2.58;;;;;;;;;;5015145;28;20057;-85
2023/01/08 04:02:07;;;;;;;4.38;2.50;;;;;;;;;;5009062;28;20133;-85
2023/01/08 04:04:34;;;;;;;3.55;2.10;;;;;;;;;;5000294;28;20153;-85
2023/01/08 04:07:01;;;;;;;3.78;2.10;;;;;;;;;;5000486;28;20066;-86
2023/01/08 04:09:27;;;;;;;3.65;1.88;;;;;;;;;;5016068;28;20053;-85
2023/01/08 04:11:53;;;;;;;3.20;2.05;;;;;;;;;;5021938;28;20053;-85
2023/01/08 04:14:20;;;;;;;3.75;1.70;;;;;;;;;;5033399;28;20033;-85
2023/01/08 04:16:46;;;;;;;4.75;1.98;;;;;;;;;;5017536;28;20141;-85
2023/01/08 04:19:13;;;;;;;3.35;2.10;;;;;;;;;;5012844;28;20062;-85
2023/01/08 04:21:40;;;;;;;3.97;1.88;;;;;;;;;;5031909;28;20064;-86
2023/01/08 04:24:06;;;;;;;5.63;2.00;;;;;;;;;;5032911;28;20053;-85
2023/01/08 04:26:33;;;;;;;3.47;1.83;;;;;;;;;;5017599;28;20046;-85
2023/01/08 04:29:01;;;;;;;3.00;1.90;;;;;;;;;;5014573;28;20057;-85
2023/01/08 04:31:27;;;;;;;3.28;2.00;;;;;;;;;;4998747;28;20054;-85
2023/01/08 04:33:54;;;;;;;3.97;2.00;;;;;;;;;;5033961;28;20049;-85
2023/01/08 04:36:20;;;;;;;3.15;1.95;;;;;;;;;;5015249;28;20050;-87
2023/01/08 04:38:47;;;;;;;4.20;2.10;;;;;;;;;;5030268;28;20061;-86
2023/01/08 04:41:13;;;;;;;3.17;1.85;;;;;;;;;;5010248;28;20157;-86
2023/01/08 04:43:40;;;;;;;3.50;2.00;;;;;;;;;;5033622;28;20055;-87
2023/01/08 04:46:10;;;;;;;4.35;1.77;;;;;;;;;;5035944;28;20080;-86
2023/01/08 04:48:36;;;;;;;4.15;2.33;;;;;;;;;;5036591;28;20057;-86
2023/01/08 04:51:03;;;;;;;3.92;2.08;;;;;;;;;;5012540;28;20046;-85
2023/01/08 04:53:32;;;;;;;3.78;2.25;;;;;;;;;;5021704;28;20057;-83
2023/01/08 04:56:03;;;;;;;3.58;2.08;;;;;;;;;;5043517;28;20101;-85
2023/01/08 04:58:29;;;;;;;7.07;2.40;;;;;;;;;;5042526;28;20060;-85
2023/01/08 05:00:56;;;;;;;5.70;2.42;;;;;;;;;;5029609;28;20046;-87
2023/01/08 05:03:22;;;;;;;5.35;2.33;;;;;;;;;;4999117;28;20080;-87
2023/01/08 05:05:49;;;;;;;4.55;2.72;;;;;;;;;;4998102;28;20156;-85
2023/01/08 05:08:15;;;;;;;8.75;2.47;;;;;;;;;;5024234;28;20053;-87
2023/01/08 05:10:42;;;;;;;3.78;2.30;;;;;;;;;;5027986;28;20057;-86
2023/01/08 05:13:08;;;;;;;4.28;2.63;;;;;;;;;;5041018;28;20107;-87
2023/01/08 05:15:35;;;;;;;4.63;2.40;;;;;;;;;;5015704;28;20545;-86
2023/01/08 05:18:02;;;;;;;4.47;2.75;;;;;;;;;;5023862;28;20521;-86
2023/01/08 05:20:29;;;;;;;4.88;2.40;;;;;;;;;;5009179;28;20050;-86
2023/01/08 05:22:57;;;;;;;5.15;2.90;;;;;;;;;;5004077;28;20117;-86
2023/01/08 05:25:23;;;;;;;4.75;2.97;;;;;;;;;;5022783;28;20054;-86
2023/01/08 05:27:51;;;;;;;4.60;2.88;;;;;;;;;;5027517;28;20049;-86
2023/01/08 05:30:17;;;;;;;6.18;3.10;;;;;;;;;;5020299;28;20041;-85
2023/01/08 05:32:44;;;;;;;4.53;3.10;;;;;;;;;;5035818;28;20061;-84
2023/01/08 05:35:10;;;;;;;6.95;3.22;;;;;;;;;;5029529;28;20152;-84
2023/01/08 05:37:37;;;;;;;5.07;3.05;;;;;;;;;;5012755;28;20064;-86
2023/01/08 05:40:04;;;;;;;5.65;3.42;;;;;;;;;;5011053;28;20519;-87
2023/01/08 05:42:32;;;;;;;5.68;3.00;;;;;;;;;;5011046;28;20387;-86
2023/01/08 05:44:59;;;;;;;6.88;3.05;;;;;;;;;;5015614;28;20077;-86
2023/01/08 05:47:28;;;;;;;7.10;3.17;;;;;;;;;;5014230;28;20063;-85
2023/01/08 05:49:55;;;;;;;5.47;2.95;;;;;;;;;;5007932;28;20049;-86
2023/01/08 05:52:21;;;;;;;5.78;3.40;;;;;;;;;;5006572;28;20061;-86
2023/01/08 05:54:48;;;;;;;5.85;3.60;;;;;;;;;;4996684;28;20072;-85
2023/01/08 05:57:14;;;;;;;8.02;3.22;;;;;;;;;;5014988;28;20057;-86
2023/01/08 05:59:41;;;;;;;6.15;3.60;;;;;;;;;;5022545;28;20046;-87
2023/01/08 06:02:07;;;;;;;5.55;3.25;;;;;;;;;;5017970;28;20137;-86
2023/01/08 06:04:34;;;;;;;5.55;3.17;;;;;;;;;;5019143;28;20049;-86
2023/01/08 06:07:01;;;;;;;5.47;3.47;;;;;;;;;;5014552;28;20060;-85
2023/01/08 06:09:27;;;;;;;6.38;3.47;;;;;;;;;;5017704;28;20077;-86
2023/01/08 06:11:53;;;;;;;4.72;3.20;;;;;;;;;;5026634;28;20164;-85
2023/01/08 06:14:20;;;;;;;6.47;3.47;;;;;;;;;;5022569;28;20057;-87
2023/01/08 06:16:47;;;;;;;5.38;3.38;;;;;;;;;;5031392;28;20143;-87
2023/01/08 06:19:13;;;;;;;6.53;3.72;;;;;;;;;;5036689;28;20053;-84
2023/01/08 06:21:39;;;;;;;8.10;4.00;;;;;;;;;;5026691;28;20054;-85
2023/01/08 06:24:06;;;;;;;6.60;3.80;;;;;;;;;;5017251;28;20072;-85
2023/01/08 06:26:33;;;;;;;6.43;3.70;;;;;;;;;;5026443;28;20049;-86
2023/01/08 06:28:59;;;;;;;6.32;3.92;;;;;;;;;;5031075;28;20111;-88
2023/01/08 06:31:26;;;;;;;6.63;3.67;;;;;;;;;;5006883;28;20063;-86
2023/01/08 06:33:52;;;;;;;6.20;3.95;;;;;;;;;;5004828;28;20057;-85
2023/01/08 06:36:19;;;;;;;6.55;3.75;;;;;;;;;;5018149;28;20123;-85
2023/01/08 06:38:46;;;;;;;5.75;3.38;;;;;;;;;;5003575;28;20108;-87
2023/01/08 06:41:12;;;;;;;6.97;4.00;;;;;;;;;;5016787;28;20076;-86
2023/01/08 06:43:39;;;;;;;6.50;3.63;;;;;;;;;;5019975;28;20121;-85
2023/01/08 06:46:07;;;;;;;7.38;4.05;;;;;;;;;;5003726;28;20059;-87
2023/01/08 06:48:34;;;;;;;8.23;4.03;;;;;;;;;;5022787;28;20077;-87
2023/01/08 06:51:01;;;;;;;5.65;3.60;;;;;;;;;;5023518;28;20564;-86
2023/01/08 06:53:27;;;;;;;5.47;3.47;;;;;;;;;;5015642;28;20081;-88
2023/01/08 06:55:57;;;;;;;7.75;3.92;;;;;;;;;;5018943;28;20164;-86
2023/01/08 06:58:25;;;;;;;9.00;4.20;;;;;;;;;;5015536;28;20046;-86
2023/01/08 07:00:51;;;;;;;6.07;3.97;;;;;;;;;;5022242;28;20061;-85
2023/01/08 07:03:18;;;;;;;8.77;4.53;;;;;;;;;;5023303;28;20049;-87
2023/01/08 07:05:44;;;;;;;8.32;4.10;;;;;;;;;;5029091;28;20095;-86
2023/01/08 07:08:14;;;;;;;7.07;4.00;;;;;;;;;;4997093;28;20057;-87
2023/01/08 07:10:42;;;;;;;7.25;4.30;;;;;;;;;;4998644;28;20057;-87
2023/01/08 07:13:08;;;;;;;7.68;4.47;;;;;;;;;;5043743;28;20060;-87
2023/01/08 07:15:36;;;;;;;8.05;4.65;;;;;;;;;;5031544;28;20108;-88
2023/01/08 07:18:26;;;;;;;6.85;4.43;;;;;;;;;;5031335;28;20046;-86
2023/01/08 07:21:02;;;;;;;7.13;4.43;;;;;;;;;;5027924;28;20125;-87
2023/01/08 07:23:28;;;;;;;8.80;4.28;;;;;;;;;;5029933;28;20388;-89
2023/01/08 07:25:59;;;;;;;6.20;4.28;;;;;;;;;;5025619;28;20053;-83
2023/01/08 07:28:26;;;;;;;7.70;4.30;;;;;;;;;;5006741;28;20045;-87
2023/01/08 07:30:52;;;;;;;9.10;4.68;;;;;;;;;;5013755;28;20049;-84
2023/01/08 07:33:19;;;;;;;7.93;4.75;;;;;;;;;;5018405;28;20045;-87
2023/01/08 07:35:52;;;;;;;8.10;4.43;;;;;;;;;;5020081;28;20527;-86
2023/01/08 07:38:28;;;;;;;8.77;5.07;;;;;;;;;;5025076;28;20138;-86
2023/01/08 07:40:56;;;;;;;9.57;4.88;;;;;;;;;;5015503;28;20124;-84
2023/01/08 07:43:30;;;;;;;9.07;4.93;;;;;;;;;;5010318;28;20054;-84
2023/01/08 07:45:57;;;;;;;10.80;5.78;;;;;;;;;;4999259;28;20056;-87
2023/01/08 07:48:23;;;;;;;9.77;5.88;;;;;;;;;;5006299;28;20060;-86
2023/01/08 07:50:50;;;;;;;11.45;6.40;;;;;;;;;;5021737;28;20041;-88
2023/01/08 07:53:16;;;;;;;10.23;5.57;;;;;;;;;;5014733;28;20054;-87
2023/01/08 07:55:43;;;;;;;10.88;5.85;;;;;;;;;;5013199;28;20064;-88
2023/01/08 07:58:11;;;;;;;10.75;6.40;;;;;;;;;;5033141;28;20427;-87
2023/01/08 08:00:38;;;;;;;10.40;6.22;;;;;;;;;;5016955;28;20057;-86
2023/01/08 08:03:07;;;;;;;13.07;6.45;;;;;;;;;;5015210;28;20137;-88
2023/01/08 08:05:34;;;;;;;10.13;6.18;;;;;;;;;;5020256;28;20080;-85
2023/01/08 08:08:06;;;;;;;11.27;6.35;;;;;;;;;;5026097;28;20056;-87
2023/01/08 08:10:32;;;;;;;11.20;6.20;;;;;;;;;;5031925;28;20038;-87
2023/01/08 08:13:06;;;;;;;10.55;5.90;;;;;;;;;;5033642;28;20144;-82
2023/01/08 08:15:33;;;;;;;10.05;5.78;;;;;;;;;;5036134;28;20053;-84
2023/01/08 08:17:59;;;;;;;9.93;5.82;;;;;;;;;;5005728;28;20054;-86
2023/01/08 08:20:33;;;;;;;9.45;4.97;;;;;;;;;;5038133;28;20036;-78
2023/01/08 08:23:01;;;;;;;8.98;5.28;;;;;;;;;;5026162;28;20058;-87
2023/01/08 08:25:32;;;;;;;7.88;4.88;;;;;;;;;;5044371;28;20124;-90
2023/01/08 08:28:18;;;;;;;11.27;5.78;;;;;;;;;;5037697;28;20113;-85
2023/01/08 08:30:45;;;;;;;10.70;5.75;;;;;;;;;;5023551;28;20060;-83
2023/01/08 08:33:17;;;;;;;11.20;6.13;;;;;;;;;;5012391;28;20614;-86
2023/01/08 08:35:47;;;;;;;9.93;5.65;;;;;;;;;;5027258;28;20057;-84
2023/01/08 08:38:25;;;;;;;10.20;5.35;;;;;;;;;;5029768;28;20068;-83
2023/01/08 08:40:54;;;;;;;10.90;5.43;;;;;;;;;;5039444;28;20241;-86
2023/01/08 08:43:27;;;;;;;8.98;5.28;;;;;;;;;;5050107;28;20107;-87
2023/01/08 08:46:13;;;;;;;8.63;5.75;;;;;;;;;;5052874;28;20041;-84
2023/01/08 08:49:03;;;;;;;10.93;6.28;;;;;;;;;;5029839;28;20073;-85
2023/01/08 08:51:48;;;;;;;10.05;5.63;;;;;;;;;;5024037;28;20041;-86
2023/01/08 08:54:23;;;;;;;11.27;4.80;;;;;;;;;;5025055;28;20114;-85
2023/01/08 08:56:52;;;;;;;10.00;5.40;;;;;;;;;;5020964;28;20042;-85
2023/01/08 08:59:19;;;;;;;15.20;5.78;;;;;;;;;;5015366;28;20112;-85
2023/01/08 09:02:02;;;;;;;9.90;5.70;;;;;;;;;;5014651;28;20049;-85
2023/01/08 09:04:59;;;;;;;9.57;5.57;;;;;;;;;;5024435;28;20623;-85
2023/01/08 09:07:38;;;;;;;9.40;5.45;;;;;;;;;;5027746;28;20081;-86
2023/01/08 09:10:11;;;;;;;11.55;6.40;;;;;;;;;;5013388;28;20092;-85
2023/01/08 09:12:50;;;;;;;11.30;5.82;;;;;;;;;;5020066;28;20053;-85
2023/01/08 09:15:22;;;;;;;10.27;5.53;;;;;;;;;;5006208;28;20057;-88
2023/01/08 09:18:03;;;;;;;10.13;5.65;;;;;;;;;;5001047;28;20119;-85
2023/01/08 09:20:41;;;;;;;11.27;6.10;;;;;;;;;;5022986;28;20079;-84
2023/01/08 09:23:11;;;;;;;9.95;5.60;;;;;;;;;;4997778;28;20054;-85
2023/01/08 09:25:43;;;;;;;10.45;5.90;;;;;;;;;;5010573;28;20072;-87
2023/01/08 09:28:24;;;;;;;8.73;5.28;;;;;;;;;;5021667;28;20041;-87
2023/01/08 09:30:54;;;;;;;9.88;5.40;;;;;;;;;;5024346;28;20059;-87
2023/01/08 09:33:31;;;;;;;9.30;5.57;;;;;;;;;;5013817;28;20042;-87
2023/01/08 09:36:07;;;;;;;11.70;5.95;;;;;;;;;;5031880;28;20060;-87
2023/01/08 09:38:36;;;;;;;8.93;5.32;;;;;;;;;;5021502;28;20054;-87
2023/01/08 09:41:08;;;;;;;11.60;6.03;;;;;;;;;;5015670;28;20395;-87
2023/01/08 09:43:45;;;;;;;10.07;6.10;;;;;;;;;;5033774;28;20132;-87
2023/01/08 09:46:26;;;;;;;8.48;5.20;;;;;;;;;;5032486;28;20054;-88
2023/01/08 09:49:03;;;;;;;10.63;5.30;;;;;;;;;;5031985;28;20053;-87
2023/01/08 09:51:32;;;;;;;10.30;6.00;;;;;;;;;;5004664;28;20077;-86
2023/01/08 09:54:14;;;;;;;11.75;5.30;;;;;;;;;;5000476;28;20111;-88
2023/01/08 09:56:41;;;;;;;9.85;5.55;;;;;;;;;;5019142;28;20162;-88
2023/01/08 09:59:17;;;;;;;12.77;5.85;;;;;;;;;;5019893;28;20132;-86
2023/01/08 10:01:45;;;;;;;15.15;5.72;;;;;;;;;;5014471;28;20092;-88
2023/01/08 10:04:22;;;;;;;10.52;5.60;;;;;;;;;;5004637;28;20501;-87
2023/01/08 10:06:55;;;;;;;8.90;5.15;;;;;;;;;;5033899;28;20113;-88
2023/01/08 10:09:29;;;;;;;9.40;4.65;;;;;;;;;;5008923;28;20048;-87
2023/01/08 10:11:58;;;;;;;11.15;5.03;;;;;;;;;;5037565;28;20057;-88
2023/01/08 10:14:27;;;;;;;9.45;4.78;;;;;;;;;;5027927;28;20173;-88
2023/01/08 10:16:59;;;;;;;9.15;4.80;;;;;;;;;;5010851;28;20093;-86
2023/01/08 10:19:26;;;;;;;8.18;4.43;;;;;;;;;;5008267;28;20050;-87
2023/01/08 10:21:55;;;;;;;8.85;4.68;;;;;;;;;;5009850;28;20059;-87
2023/01/08 10:24:35;;;;;;;9.27;4.80;;;;;;;;;;5028142;28;20049;-87
2023/01/08 10:27:06;;;;;;;8.25;4.63;;;;;;;;;;5011447;28;20084;-86
2023/01/08 10:29:32;;;;;;;8.15;4.32;;;;;;;;;;5010740;28;20116;-86
2023/01/08 10:32:06;;;;;;;9.80;4.57;;;;;;;;;;5011028;28;20053;-87
2023/01/08 10:34:45;;;;;;;7.80;4.78;;;;;;;;;;5003971;28;20049;-87
2023/01/08 10:37:20;;;;;;;9.68;4.88;;;;;;;;;;5012164;28;20161;-88
2023/01/08 10:39:47;;;;;;;7.40;4.32;;;;;;;;;;4992044;28;20053;-86
2023/01/08 10:42:15;;;;;;;8.60;4.50;;;;;;;;;;5004926;28;20045;-83
2023/01/08 10:44:48;;;;;;;7.35;4.03;;;;;;;;;;5010299;28;20235;-86
2023/01/08 10:47:16;;;;;;;9.85;4.32;;;;;;;;;;5028443;28;20064;-87
2023/01/08 10:49:44;;;;;;;8.88;4.20;;;;;;;;;;5011844;28;20071;-86
2023/01/08 10:52:27;;;;;;;7.13;3.70;;;;;;;;;;5010361;28;20189;-85
2023/01/08 10:54:54;;;;;;;4.70;3.22;;;;;;;;;;4990421;28;20073;-87
2023/01/08 10:57:22;;;;;;;8.80;3.92;;;;;;;;;;5008399;28;20050;-88
2023/01/08 10:59:48;;;;;;;7.90;3.75;;;;;;;;;;5028377;28;20361;-87
2023/01/08 11:02:36;;;;;;;7.63;3.70;;;;;;;;;;5009973;28;20106;-87
2023/01/08 11:05:06;;;;;;;5.45;3.25;;;;;;;;;;5015508;28;20071;-86
2023/01/08 11:07:38;;;;;;;9.25;3.50;;;;;;;;;;5015245;28;20045;-85
2023/01/08 11:10:05;;;;;;;7.70;3.83;;;;;;;;;;5032376;28;20123;-85
2023/01/08 11:12:39;;;;;;;5.90;3.40;;;;;;;;;;5018034;28;20056;-83
2023/01/08 11:15:22;;;;;;;6.70;3.03;;;;;;;;;;5021062;28;20072;-84
2023/01/08 11:17:49;;;;;;;5.43;3.10;;;;;;;;;;5024325;28;20077;-84
2023/01/08 11:20:29;;;;;;;5.30;3.15;;;;;;;;;;5034557;28;20148;-88
2023/01/08 11:23:15;;;;;;;5.40;2.80;;;;;;;;;;5014754;28;20051;-86
2023/01/08 11:25:43;;;;;;;5.00;2.20;;;;;;;;;;5027712;28;20057;-85
2023/01/08 11:28:14;;;;;;;5.45;3.05;;;;;;;;;;4994467;28;20102;-85
2023/01/08 11:30:43;;;;;;;4.82;2.95;;;;;;;;;;4993806;28;20338;-89
2023/01/08 11:33:17;;;;;;;6.25;3.20;;;;;;;;;;5004160;28;20079;-89
2023/01/08 11:36:01;;;;;;;6.70;3.20;;;;;;;;;;5011409;28;20112;-89
2023/01/08 11:38:27;;;;;;;5.85;3.10;;;;;;;;;;5015264;28;20148;-89
2023/01/08 11:40:59;;;;;;;7.15;3.00;;;;;;;;;;5015479;28;20113;-89
2023/01/08 11:43:29;;;;;;;4.95;2.95;;;;;;;;;;5010463;28;20069;-88
2023/01/08 11:46:11;;;;;;;5.38;2.88;;;;;;;;;;5036230;28;20046;-90
2023/01/08 11:48:40;;;;;;;6.28;3.22;;;;;;;;;;5005529;28;20169;-90
2023/01/08 11:51:16;;;;;;;6.35;3.05;;;;;;;;;;5006833;28;20064;-90
2023/01/08 11:53:42;;;;;;;;;;;;;;;;;;5019943;28;20588;-90
2023/01/08 11:56:09;;;;;;;5.60;2.90;;;;;;;;;;5014360;28;20369;-91
2023/01/08 11:58:35;;;;;;;4.28;2.42;;;;;;;;;;5006150;28;20094;-90
2023/01/08 12:01:05;;;;;;;5.05;2.88;;;;;;;;;;5004971;28;20107;-91
2023/01/08 12:03:37;;;;;;;7.95;3.40;;;;;;;;;;5006806;28;20057;-91
2023/01/08 12:06:22;;;;;;;6.45;2.75;;;;;;;;;;4998813;28;20115;-90
2023/01/08 12:08:52;;;;;;;5.03;2.40;;;;;;;;;;5015599;28;20136;-91
2023/01/08 12:11:18;;;;;;;5.25;2.90;;;;;;;;;;4998825;28;20068;-91
2023/01/08 12:14:01;;;;;;;3.75;2.28;;;;;;;;;;4999101;28;20049;-91
2023/01/08 12:16:33;;;;;;;4.43;2.95;;;;;;;;;;5012868;28;20069;-92
2023/01/08 12:19:00;;;;;;;7.47;3.10;;;;;;;;;;5010105;28;20053;-90
2023/01/08 12:21:37;;;;;;;5.72;2.60;;;;;;;;;;5011526;28;20046;-90
2023/01/08 12:24:16;;;;;;;4.10;2.30;;;;;;;;;;5001594;28;20424;-90
2023/01/08 12:26:49;;;;;;;4.28;2.28;;;;;;;;;;5008593;28;20132;-90
2023/01/08 12:29:34;;;;;;;4.40;2.47;;;;;;;;;;5018805;28;20452;-89
2023/01/08 12:32:18;;;;;;;5.18;2.30;;;;;;;;;;4996212;28;20446;-90
2023/01/08 12:35:17;;;;;;;4.55;2.30;;;;;;;;;;5028827;28;20067;-90
2023/01/08 12:38:03;;;;;;;5.38;2.60;;;;;;;;;;4996921;28;20430;-89
2023/01/08 12:40:41;;;;;;;3.88;2.40;;;;;;;;;;5015201;28;20049;-89
2023/01/08 12:43:13;;;;;;;4.03;2.25;;;;;;;;;;5000050;28;20080;-88
2023/01/08 12:45:43;;;;;;;3.88;2.25;;;;;;;;;;5015092;28;20147;-88
2023/01/08 12:48:18;;;;;;;4.07;2.08;;;;;;;;;;5031959;28;20087;-88
2023/01/08 12:51:27;;;;;;;2.88;1.60;;;;;;;;;;5010906;28;20057;-90
2023/01/08 12:54:14;;;;;;;3.40;2.08;;;;;;;;;;4968794;28;20051;-90
2023/01/08 12:56:40;;;;;;;3.47;1.80;;;;;;;;;;5001982;28;20635;-86
2023/01/08 12:59:34;;;;;;;2.20;1.60;;;;;;;;;;5002749;28;20066;-85
2023/01/08 13:02:16;;;;;;;3.70;1.90;;;;;;;;;;4992710;28;20076;-86
2023/01/08 13:04:44;;;;;;;4.30;1.67;;;;;;;;;;5007557;28;20053;-85
2023/01/08 13:07:15;;;;;;;3.92;1.60;;;;;;;;;;5030568;28;20302;-84
2023/01/08 13:09:41;;;;;;;3.28;1.58;;;;;;;;;;5007104;28;20045;-85
2023/01/08 13:12:11;;;;;;;2.95;1.58;;;;;;;;;;5031883;28;20058;-88
2023/01/08 13:14:42;;;;;;;3.35;1.67;;;;;;;;;;5006430;28;20052;-86
2023/01/08 13:17:16;;;;;;;2.42;1.38;;;;;;;;;;5027870;28;20064;-87
2023/01/08 13:19:44;;;;;;;2.23;1.40;;;;;;;;;;4998712;28;20491;-86
2023/01/08 13:22:31;;;;;;;2.85;1.50;;;;;;;;;;5018586;28;20084;-86
2023/01/08 13:25:08;;;;;;;2.40;1.60;;;;;;;;;;5023440;28;20196;-87
2023/01/08 13:27:34;;;;;;;5.10;1.58;;;;;;;;;;5018464;28;20045;-85
2023/01/08 13:30:01;;;;;;;1.67;1.13;;;;;;;;;;5012479;28;20514;-86
2023/01/08 13:32:33;;;;;;;3.47;1.30;;;;;;;;;;5027332;28;20127;-87
2023/01/08 13:35:15;;;;;;;2.88;1.35;;;;;;;;;;4995856;28;20357;-85
2023/01/08 13:37:43;;;;;;;1.45;1.00;;;;;;;;;;4993980;28;20112;-87
2023/01/08 13:40:35;;;;;;;2.35;1.50;;;;;;;;;;5018674;28;20269;-88
2023/01/08 13:43:04;;;;;;;2.65;1.40;;;;;;;;;;4994540;28;20152;-87
2023/01/08 13:45:31;;;;;;;2.40;1.17;;;;;;;;;;5027704;28;20054;-87
2023/01/08 13:47:59;;;;;;;1.88;0.90;;;;;;;;;;5029032;28;20064;-87
2023/01/08 13:50:29;;;;;;;2.58;0.90;;;;;;;;;;5016598;28;20056;-88
2023/01/08 13:53:03;;;;;;;1.90;1.08;;;;;;;;;;5010045;28;20143;-89
2023/01/08 13:55:36;;;;;;;1.80;1.00;;;;;;;;;;5015408;28;20063;-86
2023/01/08 13:58:23;;;;;;;1.48;1.00;;;;;;;;;;5006700;28;20056;-87
2023/01/08 14:00:51;;;;;;;1.67;1.08;;;;;;;;;;5011862;28;20085;-88
2023/01/08 14:03:37;;;;;;;1.20;0.90;;;;;;;;;;4993900;28;20466;-84
2023/01/08 14:06:03;;;;;;;;;;;;;;;;;;5032591;28;20148;-85
2023/01/08 14:08:30;;;;;;;2.05;0.93;;;;;;;;;;5007311;28;19925;-86
2023/01/08 14:10:56;;;;;;;3.15;1.25;;;;;;;;;;5001434;28;20056;-85
2023/01/08 14:13:27;;;;;;;3.17;1.63;;;;;;;;;;4995976;28;20144;-86
2023/01/08 14:16:02;;;;;;;3.35;1.05;;;;;;;;;;5012341;28;20136;-86
2023/01/08 14:18:28;;;;;;;2.28;1.30;;;;;;;;;;4998290;28;20053;-85
2023/01/08 14:20:56;;;;;;;1.48;1.00;;;;;;;;;;5042240;28;20072;-83
2023/01/08 14:23:25;;;;;;;1.98;1.25;;;;;;;;;;5047804;28;20045;-86
2023/01/08 14:25:52;;;;;;;1.92;1.20;;;;;;;;;;5018910;28;20128;-85
2023/01/08 14:28:19;;;;;;;2.00;1.20;;;;;;;;;;5009343;28;20057;-86
2023/01/08 14:30:49;;;;;;;2.53;1.65;;;;;;;;;;5027344;28;20056;-86
2023/01/08 14:33:17;;;;;;;2.72;1.48;;;;;;;;;;5010214;28;20904;-86
2023/01/08 14:35:45;;;;;;;3.20;1.60;;;;;;;;;;5006024;28;20057;-86
2023/01/08 14:38:13;;;;;;;3.20;1.60;;;;;;;;;;5009869;28;20057;-85
2023/01/08 14:40:44;;;;;;;2.90;1.55;;;;;;;;;;5027758;28;20057;-86
2023/01/08 14:43:12;;;;;;;3.53;1.50;;;;;;;;;;4999931;28;20049;-86
2023/01/08 14:45:43;;;;;;;2.45;1.42;;;;;;;;;;5006132;28;20061;-86
2023/01/08 14:48:19;;;;;;;2.10;1.40;;;;;;;;;;5025228;28;20053;-85
2023/01/08 14:50:59;;;;;;;1.83;1.20;;;;;;;;;;4997838;28;20072;-86
2023/01/08 14:53:30;;;;;;;2.95;1.48;;;;;;;;;;5035691;28;20064;-86
2023/01/08 14:55:57;;;;;;;2.53;1.50;;;;;;;;;;4999772;28;20049;-85
2023/01/08 14:58:25;;;;;;;1.90;1.00;;;;;;;;;;5009565;28;20057;-84
2023/01/08 15:01:04;;;;;;;4.28;1.50;;;;;;;;;;5026068;28;20670;-87
2023/01/08 15:03:39;;;;;;;2.45;1.50;;;;;;;;;;5020563;28;20073;-85